sensor_id;sensor_type;location;lat;lon;timestamp;pressure;altitude;pressure_sealevel;temperature;humidity
50550;BME280;36505;52.512;13.460;2023-05-14T00:02:13;101540.09;;;13.49;56.57
50550;BME280;36505;52.512;13.460;2023-05-14T00:04:38;101528.34;;;13.53;56.84
50550;BME280;36505;52.512;13.460;2023-05-14T00:07:04;101539.34;;;13.53;56.78
50550;BME280;36505;52.512;13.460;2023-05-14T00:09:31;101529.19;;;13.54;56.63
50550;BME280;36505;52.512;13.460;2023-05-14T00:11:56;101540.09;;;13.49;56.45
50550;BME280;36505;52.512;13.460;2023-05-14T00:14:22;101537.59;;;13.47;56.81
50550;BME280;36505;52.512;13.460;2023-05-14T00:16:48;101523.81;;;13.47;56.47
50550;BME280;36505;52.512;13.460;2023-05-14T00:19:13;101526.47;;;13.42;56.39
50550;BME280;36505;52.512;13.460;2023-05-14T00:21:39;101524.91;;;13.46;56.45
50550;BME280;36505;52.512;13.460;2023-05-14T00:24:04;101519.91;;;13.43;56.77
50550;BME280;36505;52.512;13.460;2023-05-14T00:26:30;101522.25;;;13.51;57.40
50550;BME280;36505;52.512;13.460;2023-05-14T00:28:55;101523.91;;;13.52;57.46
50550;BME280;36505;52.512;13.460;2023-05-14T00:31:20;101518.19;;;13.54;57.67
50550;BME280;36505;52.512;13.460;2023-05-14T00:33:46;101498.75;;;13.43;57.04
50550;BME280;36505;52.512;13.460;2023-05-14T00:36:11;101517.34;;;13.53;57.52
50550;BME280;36505;52.512;13.460;2023-05-14T00:38:37;101516.75;;;13.51;56.08
50550;BME280;36505;52.512;13.460;2023-05-14T00:41:02;101510.16;;;13.52;55.97
50550;BME280;36505;52.512;13.460;2023-05-14T00:43:27;101510.16;;;13.52;55.81
50550;BME280;36505;52.512;13.460;2023-05-14T00:45:53;101508.50;;;13.51;55.89
50550;BME280;36505;52.512;13.460;2023-05-14T00:48:20;101504.44;;;13.54;55.60
50550;BME280;36505;52.512;13.460;2023-05-14T00:50:49;101486.91;;;13.43;55.57
50550;BME280;36505;52.512;13.460;2023-05-14T00:53:16;101499.44;;;13.51;55.38
50550;BME280;36505;52.512;13.460;2023-05-14T00:55:43;101498.00;;;13.48;55.26
50550;BME280;36505;52.512;13.460;2023-05-14T00:58:10;101504.94;;;13.39;55.66
50550;BME280;36505;52.512;13.460;2023-05-14T01:00:37;101504.13;;;13.38;55.50
50550;BME280;36505;52.512;13.460;2023-05-14T01:03:03;101509.75;;;13.32;55.67
50550;BME280;36505;52.512;13.460;2023-05-14T01:08:06;101493.91;;;13.22;55.93
50550;BME280;36505;52.512;13.460;2023-05-14T01:11:05;101507.16;;;13.25;56.42
50550;BME280;36505;52.512;13.460;2023-05-14T01:13:46;101495.94;;;13.15;55.74
50550;BME280;36505;52.512;13.460;2023-05-14T01:16:17;101510.41;;;13.22;55.58
50550;BME280;36505;52.512;13.460;2023-05-14T01:18:45;101509.69;;;13.15;55.11
50550;BME280;36505;52.512;13.460;2023-05-14T01:21:46;101500.63;;;13.15;55.44
50550;BME280;36505;52.512;13.460;2023-05-14T01:24:11;101509.31;;;13.12;55.43
50550;BME280;36505;52.512;13.460;2023-05-14T01:26:37;101481.59;;;13.01;55.72
50550;BME280;36505;52.512;13.460;2023-05-14T01:29:22;101504.31;;;13.09;55.34
50550;BME280;36505;52.512;13.460;2023-05-14T01:31:49;101494.28;;;13.02;55.52
50550;BME280;36505;52.512;13.460;2023-05-14T01:34:15;101504.19;;;13.03;55.35
50550;BME280;36505;52.512;13.460;2023-05-14T01:36:42;101495.59;;;13.00;55.51
50550;BME280;36505;52.512;13.460;2023-05-14T01:39:09;101499.19;;;13.00;55.46
50550;BME280;36505;52.512;13.460;2023-05-14T01:41:36;101482.91;;;12.99;55.61
50550;BME280;36505;52.512;13.460;2023-05-14T01:44:03;101483.75;;;12.99;55.44
50550;BME280;36505;52.512;13.460;2023-05-14T01:46:31;101494.38;;;13.07;55.41
50550;BME280;36505;52.512;13.460;2023-05-14T01:48:58;101493.31;;;13.09;55.32
50550;BME280;36505;52.512;13.460;2023-05-14T01:51:23;101487.09;;;13.13;55.44
50550;BME280;36505;52.512;13.460;2023-05-14T01:53:48;101482.44;;;13.14;56.03
50550;BME280;36505;52.512;13.460;2023-05-14T01:56:14;101486.03;;;13.14;55.16
50550;BME280;36505;52.512;13.460;2023-05-14T01:58:39;101479.78;;;13.19;55.13
50550;BME280;36505;52.512;13.460;2023-05-14T02:01:04;101491.03;;;13.17;54.54
50550;BME280;36505;52.512;13.460;2023-05-14T02:03:30;101475.97;;;13.20;54.68
50550;BME280;36505;52.512;13.460;2023-05-14T02:05:55;101484.31;;;13.25;54.15
50550;BME280;36505;52.512;13.460;2023-05-14T02:08:21;101480.47;;;13.26;54.29
50550;BME280;36505;52.512;13.460;2023-05-14T02:10:46;101484.44;;;13.30;54.34
50550;BME280;36505;52.512;13.460;2023-05-14T02:13:11;101475.34;;;13.29;54.04
50550;BME280;36505;52.512;13.460;2023-05-14T02:15:37;101470.41;;;13.31;53.57
50550;BME280;36505;52.512;13.460;2023-05-14T02:18:02;101471.75;;;13.29;53.64
50550;BME280;36505;52.512;13.460;2023-05-14T02:20:28;101469.47;;;13.26;53.19
50550;BME280;36505;52.512;13.460;2023-05-14T02:22:53;101476.66;;;13.27;53.18
50550;BME280;36505;52.512;13.460;2023-05-14T02:25:18;101461.75;;;13.23;52.72
50550;BME280;36505;52.512;13.460;2023-05-14T02:27:44;101468.66;;;13.25;52.60
50550;BME280;36505;52.512;13.460;2023-05-14T02:30:10;101478.25;;;13.23;52.62
50550;BME280;36505;52.512;13.460;2023-05-14T02:32:35;101464.22;;;13.24;52.18
50550;BME280;36505;52.512;13.460;2023-05-14T02:35:00;101474.88;;;13.21;52.21
50550;BME280;36505;52.512;13.460;2023-05-14T02:37:26;101463.28;;;13.19;52.02
50550;BME280;36505;52.512;13.460;2023-05-14T02:39:51;101466.03;;;13.19;52.02
50550;BME280;36505;52.512;13.460;2023-05-14T02:42:17;101472.75;;;13.23;51.80
50550;BME280;36505;52.512;13.460;2023-05-14T02:44:42;101462.81;;;13.22;51.74
50550;BME280;36505;52.512;13.460;2023-05-14T02:47:08;101470.22;;;13.21;51.74
50550;BME280;36505;52.512;13.460;2023-05-14T02:49:33;101476.66;;;13.27;51.60
50550;BME280;36505;52.512;13.460;2023-05-14T02:51:59;101469.47;;;13.26;51.22
50550;BME280;36505;52.512;13.460;2023-05-14T02:54:25;101445.84;;;13.13;51.20
50550;BME280;36505;52.512;13.460;2023-05-14T02:56:50;101445.63;;;13.15;51.22
50550;BME280;36505;52.512;13.460;2023-05-14T02:59:16;101470.00;;;13.23;51.39
50550;BME280;36505;52.512;13.460;2023-05-14T03:01:41;101470.81;;;13.23;51.22
50550;BME280;36505;52.512;13.460;2023-05-14T03:04:07;101464.59;;;13.28;50.72
50550;BME280;36505;52.512;13.460;2023-05-14T03:06:32;101473.16;;;13.31;50.64
50550;BME280;36505;52.512;13.460;2023-05-14T03:08:58;101471.25;;;13.32;50.75
50550;BME280;36505;52.512;13.460;2023-05-14T03:11:23;101475.69;;;13.33;50.80
50550;BME280;36505;52.512;13.460;2023-05-14T03:13:48;101460.75;;;13.29;50.70
50550;BME280;36505;52.512;13.460;2023-05-14T03:16:14;101478.28;;;13.39;50.36
50550;BME280;36505;52.512;13.460;2023-05-14T03:18:39;101471.47;;;13.42;50.42
50550;BME280;36505;52.512;13.460;2023-05-14T03:21:05;101469.88;;;13.46;50.82
50550;BME280;36505;52.512;13.460;2023-05-14T03:23:30;101465.56;;;13.50;49.86
50550;BME280;36505;52.512;13.460;2023-05-14T03:25:59;101466.75;;;13.54;49.72
50550;BME280;36505;52.512;13.460;2023-05-14T03:28:25;101466.13;;;13.52;49.55
50550;BME280;36505;52.512;13.460;2023-05-14T03:30:50;101465.97;;;13.42;49.85
50550;BME280;36505;52.512;13.460;2023-05-14T03:33:16;101460.94;;;13.39;49.91
50550;BME280;36505;52.512;13.460;2023-05-14T03:35:42;101466.69;;;13.37;49.94
50550;BME280;36505;52.512;13.460;2023-05-14T03:38:07;101465.72;;;13.43;49.66
50550;BME280;36505;52.512;13.460;2023-05-14T03:40:32;101461.63;;;13.46;49.50
50550;BME280;36505;52.512;13.460;2023-05-14T03:42:58;101460.69;;;13.40;49.48
50550;BME280;36505;52.512;13.460;2023-05-14T03:45:23;101460.59;;;13.35;49.60
50550;BME280;36505;52.512;13.460;2023-05-14T03:47:48;101459.78;;;13.35;49.64
50550;BME280;36505;52.512;13.460;2023-05-14T03:50:14;101458.56;;;13.31;49.75
50550;BME280;36505;52.512;13.460;2023-05-14T03:52:39;101461.09;;;13.32;49.92
50550;BME280;36505;52.512;13.460;2023-05-14T03:55:05;101460.94;;;13.39;49.83
50550;BME280;36505;52.512;13.460;2023-05-14T03:57:31;101465.13;;;13.41;49.82
50550;BME280;36505;52.512;13.460;2023-05-14T03:59:56;101440.59;;;13.40;49.77
50550;BME280;36505;52.512;13.460;2023-05-14T04:02:22;101449.78;;;13.45;49.35
50550;BME280;36505;52.512;13.460;2023-05-14T04:04:47;101457.66;;;13.54;49.39
50550;BME280;36505;52.512;13.460;2023-05-14T04:07:12;101460.47;;;13.59;49.14
50550;BME280;36505;52.512;13.460;2023-05-14T04:09:38;101463.00;;;13.60;49.01
50550;BME280;36505;52.512;13.460;2023-05-14T04:12:03;101457.00;;;13.63;49.18
50550;BME280;36505;52.512;13.460;2023-05-14T04:14:29;101456.25;;;13.68;48.86
50550;BME280;36505;52.512;13.460;2023-05-14T04:16:54;101446.69;;;13.70;49.08
50550;BME280;36505;52.512;13.460;2023-05-14T04:19:20;101447.38;;;13.77;48.67
50550;BME280;36505;52.512;13.460;2023-05-14T04:21:45;101448.75;;;13.80;48.88
50550;BME280;36505;52.512;13.460;2023-05-14T04:24:10;101451.88;;;13.83;48.45
50550;BME280;36505;52.512;13.460;2023-05-14T04:26:36;101449.97;;;13.84;48.43
50550;BME280;36505;52.512;13.460;2023-05-14T04:29:01;101446.38;;;13.83;48.60
50550;BME280;36505;52.512;13.460;2023-05-14T04:31:28;101446.00;;;13.80;48.61
50550;BME280;36505;52.512;13.460;2023-05-14T04:33:54;101448.44;;;13.76;48.71
50550;BME280;36505;52.512;13.460;2023-05-14T04:36:19;101446.16;;;13.73;48.94
50550;BME280;36505;52.512;13.460;2023-05-14T04:38:45;101445.09;;;13.74;48.70
50550;BME280;36505;52.512;13.460;2023-05-14T04:41:10;101440.25;;;13.81;48.95
50550;BME280;36505;52.512;13.460;2023-05-14T04:43:36;101437.19;;;13.95;48.62
50550;BME280;36505;52.512;13.460;2023-05-14T04:46:01;101434.34;;;14.23;48.14
50550;BME280;36505;52.512;13.460;2023-05-14T04:48:27;101441.63;;;14.68;46.85
50550;BME280;36505;52.512;13.460;2023-05-14T04:50:52;101440.16;;;15.74;44.40
50550;BME280;36505;52.512;13.460;2023-05-14T04:53:18;101438.81;;;16.50;42.32
50550;BME280;36505;52.512;13.460;2023-05-14T04:55:43;101428.81;;;17.89;39.82
50550;BME280;36505;52.512;13.460;2023-05-14T04:58:08;101415.72;;;18.50;38.59
50550;BME280;36505;52.512;13.460;2023-05-14T05:00:34;101434.06;;;18.46;38.93
50550;BME280;36505;52.512;13.460;2023-05-14T05:02:59;101430.19;;;17.71;39.92
50550;BME280;36505;52.512;13.460;2023-05-14T05:05:24;101432.59;;;17.32;40.86
50550;BME280;36505;52.512;13.460;2023-05-14T05:07:50;101435.56;;;17.06;41.65
50550;BME280;36505;52.512;13.460;2023-05-14T05:10:15;101435.31;;;16.60;41.96
50550;BME280;36505;52.512;13.460;2023-05-14T05:12:40;101438.94;;;16.29;41.82
50550;BME280;36505;52.512;13.460;2023-05-14T05:15:06;101438.38;;;15.90;42.31
50550;BME280;36505;52.512;13.460;2023-05-14T05:17:34;101426.81;;;15.66;42.85
50550;BME280;36505;52.512;13.460;2023-05-14T05:19:59;101430.75;;;15.48;43.23
50550;BME280;36505;52.512;13.460;2023-05-14T05:22:24;101429.75;;;15.32;43.80
50550;BME280;36505;52.512;13.460;2023-05-14T05:24:50;101429.38;;;15.51;43.58
50550;BME280;36505;52.512;13.460;2023-05-14T05:27:15;101434.81;;;16.68;41.57
50550;BME280;36505;52.512;13.460;2023-05-14T05:29:41;101429.34;;;16.78;40.90
50550;BME280;36505;52.512;13.460;2023-05-14T05:32:06;101436.03;;;16.92;40.92
50550;BME280;36505;52.512;13.460;2023-05-14T05:34:32;101426.44;;;17.15;39.77
50550;BME280;36505;52.512;13.460;2023-05-14T05:36:58;101421.09;;;16.46;41.11
50550;BME280;36505;52.512;13.460;2023-05-14T05:39:23;101401.81;;;16.14;42.11
50550;BME280;36505;52.512;13.460;2023-05-14T05:41:49;101419.88;;;16.27;42.05
50550;BME280;36505;52.512;13.460;2023-05-14T05:44:14;101427.53;;;16.15;41.89
50550;BME280;36505;52.512;13.460;2023-05-14T05:46:40;101427.94;;;16.76;41.28
50550;BME280;36505;52.512;13.460;2023-05-14T05:49:05;101428.28;;;16.47;41.45
50550;BME280;36505;52.512;13.460;2023-05-14T05:51:30;101423.00;;;16.41;41.28
50550;BME280;36505;52.512;13.460;2023-05-14T05:53:57;101432.63;;;16.33;41.97
50550;BME280;36505;52.512;13.460;2023-05-14T05:56:22;101421.22;;;16.25;41.46
50550;BME280;36505;52.512;13.460;2023-05-14T05:58:48;101427.47;;;16.52;41.42
50550;BME280;36505;52.512;13.460;2023-05-14T06:01:13;101428.19;;;16.74;41.11
50550;BME280;36505;52.512;13.460;2023-05-14T06:03:38;101421.13;;;16.98;40.97
50550;BME280;36505;52.512;13.460;2023-05-14T06:06:04;101421.78;;;17.31;40.31
50550;BME280;36505;52.512;13.460;2023-05-14T06:08:30;101418.75;;;17.32;39.78
50550;BME280;36505;52.512;13.460;2023-05-14T06:10:56;101420.91;;;17.20;40.39
50550;BME280;36505;52.512;13.460;2023-05-14T06:13:21;101424.00;;;17.34;40.62
50550;BME280;36505;52.512;13.460;2023-05-14T06:15:47;101417.88;;;17.27;39.95
50550;BME280;36505;52.512;13.460;2023-05-14T06:18:12;101418.91;;;16.95;40.82
50550;BME280;36505;52.512;13.460;2023-05-14T06:20:37;101424.06;;;16.72;41.77
50550;BME280;36505;52.512;13.460;2023-05-14T06:23:03;101419.66;;;16.39;42.14
50550;BME280;36505;52.512;13.460;2023-05-14T06:25:29;101426.72;;;16.19;42.74
50550;BME280;36505;52.512;13.460;2023-05-14T06:27:55;101423.84;;;16.04;43.29
50550;BME280;36505;52.512;13.460;2023-05-14T06:30:20;101421.63;;;16.01;43.17
50550;BME280;36505;52.512;13.460;2023-05-14T06:32:46;101421.66;;;16.06;43.39
50550;BME280;36505;52.512;13.460;2023-05-14T06:35:11;101423.31;;;16.07;43.54
50550;BME280;36505;52.512;13.460;2023-05-14T06:37:36;101420.00;;;16.10;43.38
50550;BME280;36505;52.512;13.460;2023-05-14T06:40:02;101422.25;;;16.13;43.35
50550;BME280;36505;52.512;13.460;2023-05-14T06:42:28;101419.44;;;16.03;43.69
50550;BME280;36505;52.512;13.460;2023-05-14T06:44:53;101419.59;;;15.92;43.53
50550;BME280;36505;52.512;13.460;2023-05-14T06:47:18;101398.69;;;15.69;44.40
50550;BME280;36505;52.512;13.460;2023-05-14T06:49:44;101424.72;;;15.78;44.42
50550;BME280;36505;52.512;13.460;2023-05-14T06:52:09;101422.44;;;15.70;44.52
50550;BME280;36505;52.512;13.460;2023-05-14T06:54:35;101422.97;;;15.67;45.29
50550;BME280;36505;52.512;13.460;2023-05-14T06:57:00;101412.63;;;15.84;44.58
50550;BME280;36505;52.512;13.460;2023-05-14T06:59:26;101421.63;;;16.01;44.23
50550;BME280;36505;52.512;13.460;2023-05-14T07:01:51;101422.84;;;16.15;44.78
50550;BME280;36505;52.512;13.460;2023-05-14T07:04:16;101425.09;;;16.24;44.10
50550;BME280;36505;52.512;13.460;2023-05-14T07:06:42;101425.75;;;16.36;43.85
50550;BME280;36505;52.512;13.460;2023-05-14T07:09:07;101406.38;;;16.36;43.26
50550;BME280;36505;52.512;13.460;2023-05-14T07:11:32;101417.84;;;16.59;43.39
50550;BME280;36505;52.512;13.460;2023-05-14T07:13:58;101421.84;;;16.74;43.50
50550;BME280;36505;52.512;13.460;2023-05-14T07:16:24;101404.72;;;16.82;43.24
50550;BME280;36505;52.512;13.460;2023-05-14T07:18:49;101420.00;;;16.94;42.43
50550;BME280;36505;52.512;13.460;2023-05-14T07:21:15;101420.25;;;16.88;42.47
50550;BME280;36505;52.512;13.460;2023-05-14T07:23:40;101421.13;;;16.98;42.26
50550;BME280;36505;52.512;13.460;2023-05-14T07:26:06;101396.84;;;17.21;41.99
50550;BME280;36505;52.512;13.460;2023-05-14T07:28:32;101414.41;;;17.67;41.48
50550;BME280;36505;52.512;13.460;2023-05-14T07:30:58;101400.53;;;18.33;40.15
50550;BME280;36505;52.512;13.460;2023-05-14T07:33:24;101404.22;;;19.03;38.68
50550;BME280;36505;52.512;13.460;2023-05-14T07:35:49;101395.56;;;19.58;37.57
50550;BME280;36505;52.512;13.460;2023-05-14T07:38:15;101391.69;;;19.93;36.57
50550;BME280;36505;52.512;13.460;2023-05-14T07:40:41;101387.09;;;20.07;37.21
50550;BME280;36505;52.512;13.460;2023-05-14T07:43:07;101389.41;;;20.29;35.53
50550;BME280;36505;52.512;13.460;2023-05-14T07:45:33;101389.03;;;20.12;35.92
50550;BME280;36505;52.512;13.460;2023-05-14T07:47:58;101382.28;;;20.18;35.73
50550;BME280;36505;52.512;13.460;2023-05-14T07:50:24;101388.00;;;20.32;34.72
50550;BME280;36505;52.512;13.460;2023-05-14T07:52:49;101386.06;;;20.27;34.49
50550;BME280;36505;52.512;13.460;2023-05-14T07:55:14;101381.16;;;20.72;34.74
50550;BME280;36505;52.512;13.460;2023-05-14T07:57:41;101372.94;;;20.85;33.28
50550;BME280;36505;52.512;13.460;2023-05-14T08:00:06;101361.25;;;21.26;33.30
50550;BME280;36505;52.512;13.460;2023-05-14T08:02:32;101368.88;;;21.39;33.06
50550;BME280;36505;52.512;13.460;2023-05-14T08:04:57;101366.97;;;21.53;33.04
50550;BME280;36505;52.512;13.460;2023-05-14T08:07:23;101370.41;;;21.64;33.21
50550;BME280;36505;52.512;13.460;2023-05-14T08:09:48;101363.31;;;21.90;31.95
50550;BME280;36505;52.512;13.460;2023-05-14T08:12:14;101363.66;;;21.51;32.59
50550;BME280;36505;52.512;13.460;2023-05-14T08:14:40;101353.03;;;21.53;32.55
50550;BME280;36505;52.512;13.460;2023-05-14T08:17:06;101363.66;;;21.84;32.52
50550;BME280;36505;52.512;13.460;2023-05-14T08:19:31;101352.97;;;22.23;31.94
50550;BME280;36505;52.512;13.460;2023-05-14T08:21:57;101355.88;;;22.87;31.66
50550;BME280;36505;52.512;13.460;2023-05-14T08:24:22;101355.97;;;22.95;30.79
50550;BME280;36505;52.512;13.460;2023-05-14T08:26:48;101352.06;;;22.69;30.58
50550;BME280;36505;52.512;13.460;2023-05-14T08:29:13;101351.53;;;22.67;31.28
50550;BME280;36505;52.512;13.460;2023-05-14T08:31:39;101355.75;;;22.23;31.38
50550;BME280;36505;52.512;13.460;2023-05-14T08:34:04;101352.97;;;22.23;31.92
50550;BME280;36505;52.512;13.460;2023-05-14T08:36:30;101342.44;;;22.34;31.50
50550;BME280;36505;52.512;13.460;2023-05-14T08:38:55;101347.31;;;22.56;31.12
50550;BME280;36505;52.512;13.460;2023-05-14T08:41:21;101324.84;;;23.02;29.84
50550;BME280;36505;52.512;13.460;2023-05-14T08:43:50;101344.09;;;23.39;29.40
50550;BME280;36505;52.512;13.460;2023-05-14T08:46:23;101337.66;;;23.52;29.59
50550;BME280;36505;52.512;13.460;2023-05-14T08:48:55;101338.34;;;23.58;29.20
50550;BME280;36505;52.512;13.460;2023-05-14T08:51:23;101334.13;;;23.47;28.91
50550;BME280;36505;52.512;13.460;2023-05-14T08:53:49;101335.25;;;23.59;28.49
50550;BME280;36505;52.512;13.460;2023-05-14T08:56:16;101333.75;;;23.04;29.56
50550;BME280;36505;52.512;13.460;2023-05-14T08:58:42;101327.38;;;23.26;29.89
50550;BME280;36505;52.512;13.460;2023-05-14T09:01:08;101315.16;;;23.21;29.34
50550;BME280;36505;52.512;13.460;2023-05-14T09:03:34;101328.56;;;23.69;28.71
50550;BME280;36505;52.512;13.460;2023-05-14T09:06:00;101313.56;;;23.87;29.08
50550;BME280;36505;52.512;13.460;2023-05-14T09:08:27;101312.47;;;23.75;28.25
50550;BME280;36505;52.512;13.460;2023-05-14T09:10:52;101308.97;;;24.62;27.75
50550;BME280;36505;52.512;13.460;2023-05-14T09:13:18;101304.31;;;24.97;26.50
50550;BME280;36505;52.512;13.460;2023-05-14T09:15:44;101307.69;;;24.68;27.17
50550;BME280;36505;52.512;13.460;2023-05-14T09:18:10;101316.34;;;24.18;27.23
50550;BME280;36505;52.512;13.460;2023-05-14T09:20:37;101305.41;;;23.99;26.94
50550;BME280;36505;52.512;13.460;2023-05-14T09:23:03;101299.28;;;24.20;27.56
50550;BME280;36505;52.512;13.460;2023-05-14T09:25:32;101287.38;;;24.14;27.45
50550;BME280;36505;52.512;13.460;2023-05-14T09:27:58;101296.72;;;24.10;27.60
50550;BME280;36505;52.512;13.460;2023-05-14T09:30:24;101287.72;;;23.90;28.04
50550;BME280;36505;52.512;13.460;2023-05-14T09:32:53;101279.25;;;23.73;28.09
50550;BME280;36505;52.512;13.460;2023-05-14T09:35:23;101277.53;;;23.63;27.95
50550;BME280;36505;52.512;13.460;2023-05-14T09:37:50;101268.88;;;23.29;28.35
50550;BME280;36505;52.512;13.460;2023-05-14T09:40:17;101279.34;;;23.23;28.86
50550;BME280;36505;52.512;13.460;2023-05-14T09:42:43;101269.63;;;23.21;28.55
50550;BME280;36505;52.512;13.460;2023-05-14T09:45:10;101265.69;;;23.22;27.79
50550;BME280;36505;52.512;13.460;2023-05-14T09:47:36;101243.31;;;22.77;27.94
50550;BME280;36505;52.512;13.460;2023-05-14T09:50:03;101256.22;;;23.09;28.24
50550;BME280;36505;52.512;13.460;2023-05-14T09:52:28;101257.19;;;23.05;28.08
50550;BME280;36505;52.512;13.460;2023-05-14T09:54:54;101244.44;;;23.12;27.23
50550;BME280;36505;52.512;13.460;2023-05-14T09:57:20;101244.41;;;23.35;27.26
50550;BME280;36505;52.512;13.460;2023-05-14T09:59:45;101241.59;;;22.90;27.54
50550;BME280;36505;52.512;13.460;2023-05-14T10:02:17;101248.09;;;22.50;28.73
50550;BME280;36505;52.512;13.460;2023-05-14T10:04:46;101241.63;;;21.81;29.49
50550;BME280;36505;52.512;13.460;2023-05-14T10:07:12;101248.50;;;22.02;29.20
50550;BME280;36505;52.512;13.460;2023-05-14T10:09:39;101235.19;;;22.13;29.10
50550;BME280;36505;52.512;13.460;2023-05-14T10:12:06;101240.25;;;22.11;29.23
50550;BME280;36505;52.512;13.460;2023-05-14T10:14:40;101240.25;;;21.64;29.36
50550;BME280;36505;52.512;13.460;2023-05-14T10:17:08;101229.56;;;21.39;29.61
50550;BME280;36505;52.512;13.460;2023-05-14T10:19:44;101226.34;;;21.13;29.55
50550;BME280;36505;52.512;13.460;2023-05-14T10:22:13;101203.13;;;20.85;30.15
50550;BME280;36505;52.512;13.460;2023-05-14T10:24:39;101220.13;;;20.84;30.42
50550;BME280;36505;52.512;13.460;2023-05-14T10:27:11;101217.59;;;20.87;30.54
50550;BME280;36505;52.512;13.460;2023-05-14T10:29:37;101203.78;;;21.15;29.94
50550;BME280;36505;52.512;13.460;2023-05-14T10:32:07;101215.34;;;21.41;30.09
50550;BME280;36505;52.512;13.460;2023-05-14T10:34:33;101202.00;;;21.38;30.22
50550;BME280;36505;52.512;13.460;2023-05-14T10:37:06;101199.41;;;21.27;30.30
50550;BME280;36505;52.512;13.460;2023-05-14T10:39:52;101197.56;;;20.85;30.92
50550;BME280;36505;52.512;13.460;2023-05-14T10:42:29;101205.44;;;20.41;31.19
50550;BME280;36505;52.512;13.460;2023-05-14T10:44:59;101209.91;;;20.18;31.82
50550;BME280;36505;52.512;13.460;2023-05-14T10:47:27;101205.63;;;20.26;31.59
50550;BME280;36505;52.512;13.460;2023-05-14T10:49:55;101202.31;;;20.24;31.28
50550;BME280;36505;52.512;13.460;2023-05-14T10:52:21;101188.53;;;20.13;31.85
50550;BME280;36505;52.512;13.460;2023-05-14T10:57:20;101196.63;;;19.86;32.28
50550;BME280;36505;52.512;13.460;2023-05-14T10:59:51;101204.38;;;19.65;32.92
50550;BME280;36505;52.512;13.460;2023-05-14T11:02:20;101202.06;;;19.49;33.32
50550;BME280;36505;52.512;13.460;2023-05-14T11:04:53;101211.50;;;19.48;33.73
50550;BME280;36505;52.512;13.460;2023-05-14T11:07:24;101203.03;;;19.29;33.87
50550;BME280;36505;52.512;13.460;2023-05-14T11:09:52;101188.41;;;19.18;33.59
50550;BME280;36505;52.512;13.460;2023-05-14T11:12:17;101180.06;;;19.18;33.88
50550;BME280;36505;52.512;13.460;2023-05-14T11:14:44;101200.88;;;19.21;33.69
50550;BME280;36505;52.512;13.460;2023-05-14T11:17:09;101205.66;;;19.15;33.56
50550;BME280;36505;52.512;13.460;2023-05-14T11:19:35;101188.41;;;19.18;33.94
50550;BME280;36505;52.512;13.460;2023-05-14T11:22:00;101156.25;;;19.17;33.71
50550;BME280;36505;52.512;13.460;2023-05-14T11:24:26;101169.38;;;19.36;34.03
50550;BME280;36505;52.512;13.460;2023-05-14T11:26:52;101188.72;;;19.51;33.89
50550;BME280;36505;52.512;13.460;2023-05-14T11:29:19;101179.00;;;19.48;33.91
50550;BME280;36505;52.512;13.460;2023-05-14T11:31:45;101181.97;;;19.57;33.93
50550;BME280;36505;52.512;13.460;2023-05-14T11:34:10;101168.25;;;19.37;34.21
50550;BME280;36505;52.512;13.460;2023-05-14T11:36:36;101171.28;;;19.40;34.49
50550;BME280;36505;52.512;13.460;2023-05-14T11:39:02;101176.25;;;19.43;35.32
50550;BME280;36505;52.512;13.460;2023-05-14T11:41:27;101167.78;;;19.29;35.41
50550;BME280;36505;52.512;13.460;2023-05-14T11:43:52;101155.63;;;19.20;35.23
50550;BME280;36505;52.512;13.460;2023-05-14T11:46:18;101162.03;;;19.21;35.23
50550;BME280;36505;52.512;13.460;2023-05-14T11:48:43;101170.91;;;19.18;35.20
50550;BME280;36505;52.512;13.460;2023-05-14T11:51:09;101154.25;;;19.18;35.43
50550;BME280;36505;52.512;13.460;2023-05-14T11:53:34;101147.84;;;19.22;35.49
50550;BME280;36505;52.512;13.460;2023-05-14T11:56:00;101151.88;;;19.35;35.49
50550;BME280;36505;52.512;13.460;2023-05-14T11:58:31;101147.41;;;19.39;35.83
50550;BME280;36505;52.512;13.460;2023-05-14T12:00:56;101133.81;;;19.38;35.26
50550;BME280;36505;52.512;13.460;2023-05-14T12:03:22;101142.72;;;19.63;34.86
50550;BME280;36505;52.512;13.460;2023-05-14T12:05:57;101125.94;;;19.73;34.67
50550;BME280;36505;52.512;13.460;2023-05-14T12:08:28;101128.78;;;19.92;34.53
50550;BME280;36505;52.512;13.460;2023-05-14T12:10:53;101125.88;;;20.21;34.71
50550;BME280;36505;52.512;13.460;2023-05-14T12:13:19;101120.88;;;20.42;33.42
50550;BME280;36505;52.512;13.460;2023-05-14T12:15:46;101128.41;;;20.60;33.63
50550;BME280;36505;52.512;13.460;2023-05-14T12:18:11;101108.44;;;20.72;33.61
50550;BME280;36505;52.512;13.460;2023-05-14T12:20:37;101107.88;;;20.88;33.55
50550;BME280;36505;52.512;13.460;2023-05-14T12:23:02;101111.00;;;20.68;33.73
50550;BME280;36505;52.512;13.460;2023-05-14T12:25:28;101125.91;;;20.59;33.34
50550;BME280;36505;52.512;13.460;2023-05-14T12:27:53;101100.13;;;20.34;33.06
50550;BME280;36505;52.512;13.460;2023-05-14T12:30:19;101107.53;;;20.20;33.23
50550;BME280;36505;52.512;13.460;2023-05-14T12:32:45;101111.88;;;20.07;32.59
50550;BME280;36505;52.512;13.460;2023-05-14T12:35:10;101112.25;;;20.01;32.64
50550;BME280;36505;52.512;13.460;2023-05-14T12:37:36;101101.78;;;19.93;32.93
50550;BME280;36505;52.512;13.460;2023-05-14T12:40:04;101093.06;;;19.99;32.35
50550;BME280;36505;52.512;13.460;2023-05-14T12:42:35;101084.53;;;19.96;32.04